Sitc Xiamen — 3ELU — position and weather

sailwx.info

Track history (hours):
 
Tides and Currents Weather Stations Pressure Air Temp Water Temp Dewpoint Dewpoint Depression Visibility Wind Speed Wind Dir Waves Ship Positions

Sitc Xiamen

Last reported at 2015-May-06 14:21 UTC. Time now 2015-May-07 01:35 UTC.
Position N 31°53' E 125°01'.

Length 145 m; draft 6.3 m.

Type: Ship (hazmat cat A). MMSI: 355090000.

Date/timePositionNaut miles runAvg speedWind from/ knotsBaromVisibWave heightAir tempDewpointWater temp
2015-May-06 14:21N 31°53' E 125°01'1214.7
2015-May-06 13:33N 31°48' E 124°48'4714.6
2015-May-06 10:20N 31°29' E 123°58'9215.8
2015-May-06 04:29N 31°03' E 122°14'8 9.1
2015-May-06 03:33N 31°04' E 122°05'1111.4
2015-May-06 02:33N 31°09' E 121°53'1414.0
2015-May-06 01:34N 31°19' E 121°42'2 2.2
2015-May-06 00:32N 31°20' E 121°39'0 0.0
2015-May-05 23:32N 31°20' E 121°39'0 0.0
2015-May-05 22:32N 31°20' E 121°39'0 0.0
2015-May-05 21:23N 31°20' E 121°39'0 0.0
2015-May-05 20:32N 31°20' E 121°39'0 0.0
2015-May-05 19:29N 31°20' E 121°39'0 0.0
2015-May-05 18:29N 31°20' E 121°39'1 1.1
2015-May-05 17:33N 31°21' E 121°39'7 7.0
2015-May-05 16:33N 31°18' E 121°46'1110.6
2015-May-05 15:33N 31°15' E 121°58'1211.5
2015-May-05 14:33N 31°11' E 122°11'1212.3
2015-May-05 13:33N 31°07' E 122°24'1514.7
2015-May-05 12:33N 31°06' E 122°41'1716.9
2015-May-05 11:33N 31°05' E 123°01'1716.7
2015-May-05 10:33N 31°05' E 123°21'1716.1
2015-May-05 09:28N 31°04' E 123°41'1415.3
2015-May-05 08:33N 31°04' E 123°57'  
2015-Apr-29 18:30N 30°59' E 122°38'1414.3
2015-Apr-29 17:30N 31°01' E 122°21'1313.3
2015-Apr-29 16:33N 31°03' E 122°07'1413.6
2015-Apr-29 15:34N 31°09' E 121°53'1414.0
2015-Apr-29 14:33N 31°19' E 121°42'2 2.3
2015-Apr-29 13:30N 31°20' E 121°39'0 0.0
2015-Apr-29 12:33N 31°20' E 121°39'0 0.0
2015-Apr-29 11:29N 31°20' E 121°39'0 0.0
2015-Apr-29 10:30N 31°20' E 121°39'0 0.0
2015-Apr-29 09:33N 31°20' E 121°39'0 0.0
2015-Apr-29 08:33N 31°20' E 121°39'0 0.0
2015-Apr-29 07:32N 31°20' E 121°39'1 0.8
2015-Apr-29 06:33N 31°20' E 121°40'6 6.5
2015-Apr-29 05:33N 31°18' E 121°47'8 8.2
2015-Apr-29 04:33N 31°15' E 121°56'10 9.6
2015-Apr-29 03:33N 31°13' E 122°07'1010.3
2015-Apr-29 02:33N 31°07' E 122°17'26 3.5
2015-Apr-28 19:07N 31°02' E 122°46'  
Track history (hours):
 
Tides and Currents Weather Stations Pressure Air Temp Water Temp Dewpoint Dewpoint Depression Visibility Wind Speed Wind Dir Waves Ship Positions

Sitc Xiamen

Last reported at 2015-May-06 14:21 UTC. Time now 2015-May-07 01:35 UTC.
Position N 31°53' E 125°01'.

Length 145 m; draft 6.3 m.

Type: Ship (hazmat cat A). MMSI: 355090000.

Date/timePositionNaut miles runAvg speedWind from/ knotsBaromVisibWave heightAir tempDewpointWater temp
2015-May-06 14:21N 31°53' E 125°01'1214.7
2015-May-06 13:33N 31°48' E 124°48'4714.6
2015-May-06 10:20N 31°29' E 123°58'9215.8
2015-May-06 04:29N 31°03' E 122°14'8 9.1
2015-May-06 03:33N 31°04' E 122°05'1111.4
2015-May-06 02:33N 31°09' E 121°53'1414.0
2015-May-06 01:34N 31°19' E 121°42'2 2.2
2015-May-06 00:32N 31°20' E 121°39'0 0.0
2015-May-05 23:32N 31°20' E 121°39'0 0.0
2015-May-05 22:32N 31°20' E 121°39'0 0.0
2015-May-05 21:23N 31°20' E 121°39'0 0.0
2015-May-05 20:32N 31°20' E 121°39'0 0.0
2015-May-05 19:29N 31°20' E 121°39'0 0.0
2015-May-05 18:29N 31°20' E 121°39'1 1.1
2015-May-05 17:33N 31°21' E 121°39'7 7.0
2015-May-05 16:33N 31°18' E 121°46'1110.6
2015-May-05 15:33N 31°15' E 121°58'1211.5
2015-May-05 14:33N 31°11' E 122°11'1212.3
2015-May-05 13:33N 31°07' E 122°24'1514.7
2015-May-05 12:33N 31°06' E 122°41'1716.9
2015-May-05 11:33N 31°05' E 123°01'1716.7
2015-May-05 10:33N 31°05' E 123°21'1716.1
2015-May-05 09:28N 31°04' E 123°41'1415.3
2015-May-05 08:33N 31°04' E 123°57'  
2015-Apr-29 18:30N 30°59' E 122°38'1414.3
2015-Apr-29 17:30N 31°01' E 122°21'1313.3
2015-Apr-29 16:33N 31°03' E 122°07'1413.6
2015-Apr-29 15:34N 31°09' E 121°53'1414.0
2015-Apr-29 14:33N 31°19' E 121°42'2 2.3
2015-Apr-29 13:30N 31°20' E 121°39'0 0.0
2015-Apr-29 12:33N 31°20' E 121°39'0 0.0
2015-Apr-29 11:29N 31°20' E 121°39'0 0.0
2015-Apr-29 10:30N 31°20' E 121°39'0 0.0
2015-Apr-29 09:33N 31°20' E 121°39'0 0.0
2015-Apr-29 08:33N 31°20' E 121°39'0 0.0
2015-Apr-29 07:32N 31°20' E 121°39'1 0.8
2015-Apr-29 06:33N 31°20' E 121°40'6 6.5
2015-Apr-29 05:33N 31°18' E 121°47'8 8.2
2015-Apr-29 04:33N 31°15' E 121°56'10 9.6
2015-Apr-29 03:33N 31°13' E 122°07'1010.3
2015-Apr-29 02:33N 31°07' E 122°17'26 3.5
2015-Apr-28 19:07N 31°02' E 122°46'  

Dump ship's entire track history